sensor_id;sensor_type;location;lat;lon;timestamp;P1;durP1;ratioP1;P2;durP2;ratioP2
5704;SDS011;2877;48.238;11.160;2022-12-22T00:00:43;1.40;;;1.30;;
5704;SDS011;2877;48.238;11.160;2022-12-22T00:03:29;2.03;;;1.83;;
5704;SDS011;2877;48.238;11.160;2022-12-22T00:06:13;2.03;;;1.83;;
5704;SDS011;2877;48.238;11.160;2022-12-22T00:08:57;2.63;;;1.90;;
5704;SDS011;2877;48.238;11.160;2022-12-22T00:11:42;2.40;;;2.20;;
5704;SDS011;2877;48.238;11.160;2022-12-22T00:14:27;1.90;;;1.80;;
5704;SDS011;2877;48.238;11.160;2022-12-22T00:17:15;2.23;;;2.03;;
5704;SDS011;2877;48.238;11.160;2022-12-22T00:20:13;2.40;;;2.20;;
5704;SDS011;2877;48.238;11.160;2022-12-22T00:22:59;2.50;;;2.23;;
5704;SDS011;2877;48.238;11.160;2022-12-22T00:25:44;2.30;;;2.20;;
5704;SDS011;2877;48.238;11.160;2022-12-22T00:28:29;2.67;;;2.47;;
5704;SDS011;2877;48.238;11.160;2022-12-22T00:31:13;2.73;;;1.90;;
5704;SDS011;2877;48.238;11.160;2022-12-22T00:33:58;2.77;;;2.57;;
5704;SDS011;2877;48.238;11.160;2022-12-22T00:36:42;2.20;;;2.00;;
5704;SDS011;2877;48.238;11.160;2022-12-22T00:39:27;2.10;;;2.00;;
5704;SDS011;2877;48.238;11.160;2022-12-22T00:42:11;1.77;;;1.50;;
5704;SDS011;2877;48.238;11.160;2022-12-22T00:44:56;2.13;;;2.00;;
5704;SDS011;2877;48.238;11.160;2022-12-22T00:47:40;2.00;;;1.90;;
5704;SDS011;2877;48.238;11.160;2022-12-22T00:50:30;2.03;;;1.87;;
5704;SDS011;2877;48.238;11.160;2022-12-22T00:53:17;3.13;;;2.00;;
5704;SDS011;2877;48.238;11.160;2022-12-22T00:56:02;1.77;;;1.67;;
5704;SDS011;2877;48.238;11.160;2022-12-22T00:58:48;2.00;;;1.67;;
5704;SDS011;2877;48.238;11.160;2022-12-22T01:01:33;1.90;;;1.80;;
5704;SDS011;2877;48.238;11.160;2022-12-22T01:04:17;2.10;;;2.00;;
5704;SDS011;2877;48.238;11.160;2022-12-22T01:07:01;1.90;;;1.80;;
5704;SDS011;2877;48.238;11.160;2022-12-22T01:09:48;1.80;;;1.70;;
5704;SDS011;2877;48.238;11.160;2022-12-22T01:12:35;2.10;;;1.90;;
5704;SDS011;2877;48.238;11.160;2022-12-22T01:15:21;2.60;;;1.90;;
5704;SDS011;2877;48.238;11.160;2022-12-22T01:18:06;2.30;;;2.10;;
5704;SDS011;2877;48.238;11.160;2022-12-22T01:20:50;1.73;;;1.63;;
5704;SDS011;2877;48.238;11.160;2022-12-22T01:23:35;1.83;;;1.57;;
5704;SDS011;2877;48.238;11.160;2022-12-22T01:26:20;1.90;;;1.80;;
5704;SDS011;2877;48.238;11.160;2022-12-22T01:29:04;1.50;;;1.50;;
5704;SDS011;2877;48.238;11.160;2022-12-22T01:31:48;1.67;;;1.57;;
5704;SDS011;2877;48.238;11.160;2022-12-22T01:34:32;1.70;;;1.60;;
5704;SDS011;2877;48.238;11.160;2022-12-22T01:37:18;1.57;;;1.47;;
5704;SDS011;2877;48.238;11.160;2022-12-22T01:40:02;1.87;;;1.30;;
5704;SDS011;2877;48.238;11.160;2022-12-22T01:42:46;1.53;;;1.50;;
5704;SDS011;2877;48.238;11.160;2022-12-22T01:45:31;1.93;;;1.83;;
5704;SDS011;2877;48.238;11.160;2022-12-22T01:48:28;1.37;;;1.37;;
5704;SDS011;2877;48.238;11.160;2022-12-22T01:51:20;2.00;;;1.90;;
5704;SDS011;2877;48.238;11.160;2022-12-22T01:54:07;1.83;;;1.20;;
5704;SDS011;2877;48.238;11.160;2022-12-22T01:56:53;1.70;;;1.60;;
5704;SDS011;2877;48.238;11.160;2022-12-22T01:59:38;1.40;;;1.30;;
5704;SDS011;2877;48.238;11.160;2022-12-22T02:02:22;1.10;;;1.10;;
5704;SDS011;2877;48.238;11.160;2022-12-22T02:05:08;2.27;;;1.67;;
5704;SDS011;2877;48.238;11.160;2022-12-22T02:08:00;1.30;;;1.20;;
5704;SDS011;2877;48.238;11.160;2022-12-22T02:10:53;1.20;;;1.20;;
5704;SDS011;2877;48.238;11.160;2022-12-22T02:17:06;1.27;;;1.27;;
5704;SDS011;2877;48.238;11.160;2022-12-22T02:26:00;1.87;;;1.77;;
5704;SDS011;2877;48.238;11.160;2022-12-22T02:29:05;1.40;;;1.30;;
5704;SDS011;2877;48.238;11.160;2022-12-22T02:31:50;2.00;;;1.80;;
5704;SDS011;2877;48.238;11.160;2022-12-22T02:34:35;1.53;;;1.43;;
5704;SDS011;2877;48.238;11.160;2022-12-22T02:37:24;1.60;;;1.50;;
5704;SDS011;2877;48.238;11.160;2022-12-22T02:46:40;1.50;;;1.50;;
5704;SDS011;2877;48.238;11.160;2022-12-22T02:49:47;1.87;;;1.67;;
5704;SDS011;2877;48.238;11.160;2022-12-22T02:52:37;1.50;;;1.40;;
5704;SDS011;2877;48.238;11.160;2022-12-22T02:55:25;1.83;;;1.73;;
5704;SDS011;2877;48.238;11.160;2022-12-22T02:58:10;2.00;;;1.90;;
5704;SDS011;2877;48.238;11.160;2022-12-22T03:00:56;1.77;;;1.67;;
5704;SDS011;2877;48.238;11.160;2022-12-22T03:03:41;1.73;;;1.63;;
5704;SDS011;2877;48.238;11.160;2022-12-22T03:06:25;1.47;;;1.37;;
5704;SDS011;2877;48.238;11.160;2022-12-22T03:09:09;1.90;;;1.73;;
5704;SDS011;2877;48.238;11.160;2022-12-22T03:11:53;1.33;;;1.33;;
5704;SDS011;2877;48.238;11.160;2022-12-22T03:14:37;1.40;;;1.30;;
5704;SDS011;2877;48.238;11.160;2022-12-22T03:17:22;1.10;;;1.10;;
5704;SDS011;2877;48.238;11.160;2022-12-22T03:20:06;1.47;;;1.37;;
5704;SDS011;2877;48.238;11.160;2022-12-22T03:22:50;2.03;;;1.50;;
5704;SDS011;2877;48.238;11.160;2022-12-22T03:25:34;3.80;;;1.37;;
5704;SDS011;2877;48.238;11.160;2022-12-22T03:28:19;1.23;;;1.20;;
5704;SDS011;2877;48.238;11.160;2022-12-22T03:30:56;3.00;;;1.17;;
5704;SDS011;2877;48.238;11.160;2022-12-22T03:33:27;1.20;;;1.10;;
5704;SDS011;2877;48.238;11.160;2022-12-22T03:35:53;4.60;;;1.20;;
5704;SDS011;2877;48.238;11.160;2022-12-22T03:38:18;1.73;;;1.00;;
5704;SDS011;2877;48.238;11.160;2022-12-22T03:40:44;1.00;;;1.00;;
5704;SDS011;2877;48.238;11.160;2022-12-22T03:43:11;1.03;;;1.03;;
5704;SDS011;2877;48.238;11.160;2022-12-22T03:45:56;6.40;;;2.80;;
5704;SDS011;2877;48.238;11.160;2022-12-22T03:48:40;2.57;;;1.10;;
5704;SDS011;2877;48.238;11.160;2022-12-22T03:51:06;1.00;;;0.90;;
5704;SDS011;2877;48.238;11.160;2022-12-22T03:53:31;0.90;;;0.90;;
5704;SDS011;2877;48.238;11.160;2022-12-22T03:55:57;0.87;;;0.87;;
5704;SDS011;2877;48.238;11.160;2022-12-22T03:58:23;0.93;;;0.80;;
5704;SDS011;2877;48.238;11.160;2022-12-22T04:00:48;0.90;;;0.90;;
5704;SDS011;2877;48.238;11.160;2022-12-22T04:03:14;1.13;;;1.03;;
5704;SDS011;2877;48.238;11.160;2022-12-22T04:05:39;1.00;;;1.00;;
5704;SDS011;2877;48.238;11.160;2022-12-22T04:08:05;0.90;;;0.90;;
5704;SDS011;2877;48.238;11.160;2022-12-22T04:10:31;1.27;;;1.10;;
5704;SDS011;2877;48.238;11.160;2022-12-22T04:13:15;1.37;;;1.30;;
5704;SDS011;2877;48.238;11.160;2022-12-22T04:15:41;1.17;;;1.17;;
5704;SDS011;2877;48.238;11.160;2022-12-22T04:18:07;1.50;;;1.40;;
5704;SDS011;2877;48.238;11.160;2022-12-22T04:20:33;4.20;;;1.43;;
5704;SDS011;2877;48.238;11.160;2022-12-22T04:22:59;1.23;;;1.17;;
5704;SDS011;2877;48.238;11.160;2022-12-22T04:25:25;2.80;;;1.30;;
5704;SDS011;2877;48.238;11.160;2022-12-22T04:27:51;1.30;;;1.20;;
5704;SDS011;2877;48.238;11.160;2022-12-22T04:30:16;1.47;;;1.37;;
5704;SDS011;2877;48.238;11.160;2022-12-22T04:32:42;1.33;;;1.23;;
5704;SDS011;2877;48.238;11.160;2022-12-22T04:35:09;1.00;;;0.97;;
5704;SDS011;2877;48.238;11.160;2022-12-22T04:37:34;1.33;;;1.23;;
5704;SDS011;2877;48.238;11.160;2022-12-22T04:40:00;1.00;;;1.00;;
5704;SDS011;2877;48.238;11.160;2022-12-22T04:42:26;1.63;;;1.10;;
5704;SDS011;2877;48.238;11.160;2022-12-22T04:44:52;0.90;;;0.90;;
5704;SDS011;2877;48.238;11.160;2022-12-22T04:47:18;1.17;;;1.10;;
5704;SDS011;2877;48.238;11.160;2022-12-22T04:49:43;1.23;;;1.00;;
5704;SDS011;2877;48.238;11.160;2022-12-22T04:52:09;0.80;;;0.80;;
5704;SDS011;2877;48.238;11.160;2022-12-22T04:54:35;0.90;;;0.90;;
5704;SDS011;2877;48.238;11.160;2022-12-22T04:57:00;0.90;;;0.77;;
5704;SDS011;2877;48.238;11.160;2022-12-22T04:59:26;2.30;;;1.00;;
5704;SDS011;2877;48.238;11.160;2022-12-22T05:01:51;0.80;;;0.80;;
5704;SDS011;2877;48.238;11.160;2022-12-22T05:04:17;0.80;;;0.80;;
5704;SDS011;2877;48.238;11.160;2022-12-22T05:06:42;0.60;;;0.60;;
5704;SDS011;2877;48.238;11.160;2022-12-22T05:09:09;0.70;;;0.70;;
5704;SDS011;2877;48.238;11.160;2022-12-22T05:11:35;0.73;;;0.73;;
5704;SDS011;2877;48.238;11.160;2022-12-22T05:14:00;0.63;;;0.63;;
5704;SDS011;2877;48.238;11.160;2022-12-22T05:16:26;0.70;;;0.70;;
5704;SDS011;2877;48.238;11.160;2022-12-22T05:18:52;0.73;;;0.73;;
5704;SDS011;2877;48.238;11.160;2022-12-22T05:21:18;2.60;;;0.70;;
5704;SDS011;2877;48.238;11.160;2022-12-22T05:23:46;2.30;;;0.70;;
5704;SDS011;2877;48.238;11.160;2022-12-22T05:26:13;0.60;;;0.60;;
5704;SDS011;2877;48.238;11.160;2022-12-22T05:28:41;0.50;;;0.50;;
5704;SDS011;2877;48.238;11.160;2022-12-22T05:31:13;0.77;;;0.70;;
5704;SDS011;2877;48.238;11.160;2022-12-22T05:33:44;0.80;;;0.80;;
5704;SDS011;2877;48.238;11.160;2022-12-22T05:36:10;0.63;;;0.60;;
5704;SDS011;2877;48.238;11.160;2022-12-22T05:38:35;0.70;;;0.70;;
5704;SDS011;2877;48.238;11.160;2022-12-22T05:41:01;0.60;;;0.60;;
5704;SDS011;2877;48.238;11.160;2022-12-22T05:43:27;0.60;;;0.60;;
5704;SDS011;2877;48.238;11.160;2022-12-22T05:45:52;0.57;;;0.53;;
5704;SDS011;2877;48.238;11.160;2022-12-22T05:48:18;0.60;;;0.60;;
5704;SDS011;2877;48.238;11.160;2022-12-22T05:50:43;0.70;;;0.70;;
5704;SDS011;2877;48.238;11.160;2022-12-22T05:53:09;0.63;;;0.63;;
5704;SDS011;2877;48.238;11.160;2022-12-22T05:55:35;0.70;;;0.70;;
5704;SDS011;2877;48.238;11.160;2022-12-22T05:58:01;0.50;;;0.50;;
5704;SDS011;2877;48.238;11.160;2022-12-22T06:00:30;0.70;;;0.70;;
5704;SDS011;2877;48.238;11.160;2022-12-22T06:02:56;1.43;;;0.70;;
5704;SDS011;2877;48.238;11.160;2022-12-22T06:05:22;0.50;;;0.50;;
5704;SDS011;2877;48.238;11.160;2022-12-22T06:07:48;0.50;;;0.50;;
5704;SDS011;2877;48.238;11.160;2022-12-22T06:10:14;0.73;;;0.70;;
5704;SDS011;2877;48.238;11.160;2022-12-22T06:12:40;0.80;;;0.80;;
5704;SDS011;2877;48.238;11.160;2022-12-22T06:15:07;0.70;;;0.70;;
5704;SDS011;2877;48.238;11.160;2022-12-22T06:17:34;1.03;;;0.60;;
5704;SDS011;2877;48.238;11.160;2022-12-22T06:20:00;0.70;;;0.70;;
5704;SDS011;2877;48.238;11.160;2022-12-22T06:22:25;0.60;;;0.60;;
5704;SDS011;2877;48.238;11.160;2022-12-22T06:24:51;1.17;;;1.07;;
5704;SDS011;2877;48.238;11.160;2022-12-22T06:27:16;4.63;;;2.13;;
5704;SDS011;2877;48.238;11.160;2022-12-22T06:29:42;1.40;;;1.30;;
5704;SDS011;2877;48.238;11.160;2022-12-22T06:32:07;1.13;;;1.03;;
5704;SDS011;2877;48.238;11.160;2022-12-22T06:34:33;2.80;;;1.30;;
5704;SDS011;2877;48.238;11.160;2022-12-22T06:36:58;0.93;;;0.93;;
5704;SDS011;2877;48.238;11.160;2022-12-22T06:39:24;1.03;;;0.70;;
5704;SDS011;2877;48.238;11.160;2022-12-22T06:41:49;0.63;;;0.63;;
5704;SDS011;2877;48.238;11.160;2022-12-22T06:44:33;0.97;;;0.90;;
5704;SDS011;2877;48.238;11.160;2022-12-22T06:46:59;2.80;;;0.90;;
5704;SDS011;2877;48.238;11.160;2022-12-22T06:49:24;5.20;;;1.10;;
5704;SDS011;2877;48.238;11.160;2022-12-22T06:51:50;0.70;;;0.57;;
5704;SDS011;2877;48.238;11.160;2022-12-22T06:54:16;0.67;;;0.67;;
5704;SDS011;2877;48.238;11.160;2022-12-22T06:56:41;0.77;;;0.60;;
5704;SDS011;2877;48.238;11.160;2022-12-22T06:59:07;2.20;;;0.80;;
5704;SDS011;2877;48.238;11.160;2022-12-22T07:01:32;1.57;;;0.60;;
5704;SDS011;2877;48.238;11.160;2022-12-22T07:03:58;2.43;;;1.00;;
5704;SDS011;2877;48.238;11.160;2022-12-22T07:06:24;0.73;;;0.73;;
5704;SDS011;2877;48.238;11.160;2022-12-22T07:08:49;1.67;;;0.90;;
5704;SDS011;2877;48.238;11.160;2022-12-22T07:11:15;0.57;;;0.57;;
5704;SDS011;2877;48.238;11.160;2022-12-22T07:13:41;2.83;;;0.80;;
5704;SDS011;2877;48.238;11.160;2022-12-22T07:16:07;1.37;;;0.90;;
5704;SDS011;2877;48.238;11.160;2022-12-22T07:18:38;4.53;;;0.83;;
5704;SDS011;2877;48.238;11.160;2022-12-22T07:21:06;0.63;;;0.63;;
5704;SDS011;2877;48.238;11.160;2022-12-22T07:23:33;0.60;;;0.60;;
5704;SDS011;2877;48.238;11.160;2022-12-22T07:25:59;2.87;;;0.50;;
5704;SDS011;2877;48.238;11.160;2022-12-22T07:28:25;1.70;;;0.80;;
5704;SDS011;2877;48.238;11.160;2022-12-22T07:30:52;0.83;;;0.60;;
5704;SDS011;2877;48.238;11.160;2022-12-22T07:33:18;0.70;;;0.70;;
5704;SDS011;2877;48.238;11.160;2022-12-22T07:35:44;2.70;;;1.30;;
5704;SDS011;2877;48.238;11.160;2022-12-22T07:38:09;1.37;;;0.73;;
5704;SDS011;2877;48.238;11.160;2022-12-22T07:40:35;1.60;;;0.70;;
5704;SDS011;2877;48.238;11.160;2022-12-22T07:43:01;8.03;;;0.83;;
5704;SDS011;2877;48.238;11.160;2022-12-22T07:45:26;2.63;;;0.70;;
5704;SDS011;2877;48.238;11.160;2022-12-22T07:48:01;1.40;;;0.90;;
5704;SDS011;2877;48.238;11.160;2022-12-22T07:50:47;1.57;;;1.10;;
5704;SDS011;2877;48.238;11.160;2022-12-22T07:53:13;0.70;;;0.70;;
5704;SDS011;2877;48.238;11.160;2022-12-22T07:55:38;0.80;;;0.80;;
5704;SDS011;2877;48.238;11.160;2022-12-22T07:58:04;2.97;;;1.10;;
5704;SDS011;2877;48.238;11.160;2022-12-22T08:00:29;3.07;;;0.90;;
5704;SDS011;2877;48.238;11.160;2022-12-22T08:02:55;2.53;;;0.87;;
5704;SDS011;2877;48.238;11.160;2022-12-22T08:05:22;1.10;;;0.90;;
5704;SDS011;2877;48.238;11.160;2022-12-22T08:07:49;0.90;;;0.60;;
5704;SDS011;2877;48.238;11.160;2022-12-22T08:10:16;0.70;;;0.70;;
5704;SDS011;2877;48.238;11.160;2022-12-22T08:12:43;3.33;;;1.50;;
5704;SDS011;2877;48.238;11.160;2022-12-22T08:15:09;0.90;;;0.80;;
5704;SDS011;2877;48.238;11.160;2022-12-22T08:17:36;2.03;;;1.13;;
5704;SDS011;2877;48.238;11.160;2022-12-22T08:20:02;2.03;;;0.77;;
5704;SDS011;2877;48.238;11.160;2022-12-22T08:22:28;2.90;;;0.70;;
5704;SDS011;2877;48.238;11.160;2022-12-22T08:24:54;1.90;;;0.70;;
5704;SDS011;2877;48.238;11.160;2022-12-22T08:27:25;1.17;;;0.70;;
5704;SDS011;2877;48.238;11.160;2022-12-22T08:29:56;2.30;;;0.70;;
5704;SDS011;2877;48.238;11.160;2022-12-22T08:32:23;3.27;;;1.00;;
5704;SDS011;2877;48.238;11.160;2022-12-22T08:34:49;3.03;;;0.80;;
5704;SDS011;2877;48.238;11.160;2022-12-22T08:37:16;3.17;;;0.93;;
5704;SDS011;2877;48.238;11.160;2022-12-22T08:39:45;4.00;;;0.73;;
5704;SDS011;2877;48.238;11.160;2022-12-22T08:42:14;0.80;;;0.80;;
5704;SDS011;2877;48.238;11.160;2022-12-22T08:44:42;6.90;;;0.97;;
5704;SDS011;2877;48.238;11.160;2022-12-22T08:47:09;2.20;;;0.60;;
5704;SDS011;2877;48.238;11.160;2022-12-22T08:49:35;2.10;;;0.80;;
5704;SDS011;2877;48.238;11.160;2022-12-22T08:52:01;2.40;;;1.00;;
5704;SDS011;2877;48.238;11.160;2022-12-22T08:54:27;1.20;;;0.70;;
5704;SDS011;2877;48.238;11.160;2022-12-22T08:56:52;1.90;;;0.90;;
5704;SDS011;2877;48.238;11.160;2022-12-22T08:59:18;1.90;;;0.63;;
5704;SDS011;2877;48.238;11.160;2022-12-22T09:01:44;0.70;;;0.67;;
5704;SDS011;2877;48.238;11.160;2022-12-22T09:04:14;4.00;;;1.00;;
5704;SDS011;2877;48.238;11.160;2022-12-22T09:06:42;0.60;;;0.60;;
5704;SDS011;2877;48.238;11.160;2022-12-22T09:09:09;2.63;;;0.80;;
5704;SDS011;2877;48.238;11.160;2022-12-22T09:11:36;5.40;;;0.80;;
5704;SDS011;2877;48.238;11.160;2022-12-22T09:14:02;2.77;;;1.30;;
5704;SDS011;2877;48.238;11.160;2022-12-22T09:16:29;2.60;;;0.80;;
5704;SDS011;2877;48.238;11.160;2022-12-22T09:18:56;2.40;;;0.70;;
5704;SDS011;2877;48.238;11.160;2022-12-22T09:21:22;0.80;;;0.80;;
5704;SDS011;2877;48.238;11.160;2022-12-22T09:23:48;1.37;;;0.70;;
5704;SDS011;2877;48.238;11.160;2022-12-22T09:26:15;0.53;;;0.53;;
5704;SDS011;2877;48.238;11.160;2022-12-22T09:28:42;1.00;;;0.90;;
5704;SDS011;2877;48.238;11.160;2022-12-22T09:31:08;1.03;;;0.70;;
5704;SDS011;2877;48.238;11.160;2022-12-22T09:33:35;1.13;;;0.87;;
5704;SDS011;2877;48.238;11.160;2022-12-22T09:36:08;1.33;;;0.80;;
5704;SDS011;2877;48.238;11.160;2022-12-22T09:38:35;2.03;;;0.70;;
5704;SDS011;2877;48.238;11.160;2022-12-22T09:41:14;2.30;;;0.83;;
5704;SDS011;2877;48.238;11.160;2022-12-22T09:43:41;1.53;;;0.63;;
5704;SDS011;2877;48.238;11.160;2022-12-22T09:46:18;1.23;;;0.90;;
5704;SDS011;2877;48.238;11.160;2022-12-22T09:48:46;0.60;;;0.60;;
5704;SDS011;2877;48.238;11.160;2022-12-22T09:51:12;3.63;;;0.80;;
5704;SDS011;2877;48.238;11.160;2022-12-22T09:53:39;1.73;;;0.60;;
5704;SDS011;2877;48.238;11.160;2022-12-22T09:56:09;2.60;;;0.80;;
5704;SDS011;2877;48.238;11.160;2022-12-22T09:58:37;2.80;;;0.80;;
5704;SDS011;2877;48.238;11.160;2022-12-22T10:03:46;0.83;;;0.77;;
5704;SDS011;2877;48.238;11.160;2022-12-22T10:06:21;1.80;;;0.70;;
5704;SDS011;2877;48.238;11.160;2022-12-22T10:08:53;1.00;;;0.80;;
5704;SDS011;2877;48.238;11.160;2022-12-22T10:11:18;2.60;;;1.33;;
5704;SDS011;2877;48.238;11.160;2022-12-22T10:13:44;1.40;;;0.90;;
5704;SDS011;2877;48.238;11.160;2022-12-22T10:16:24;5.60;;;0.93;;
5704;SDS011;2877;48.238;11.160;2022-12-22T10:18:59;1.53;;;1.20;;
5704;SDS011;2877;48.238;11.160;2022-12-22T10:21:31;2.33;;;0.80;;
5704;SDS011;2877;48.238;11.160;2022-12-22T10:23:56;1.50;;;0.83;;
5704;SDS011;2877;48.238;11.160;2022-12-22T10:26:27;2.00;;;0.87;;
5704;SDS011;2877;48.238;11.160;2022-12-22T10:29:06;1.80;;;0.90;;
5704;SDS011;2877;48.238;11.160;2022-12-22T10:31:36;2.93;;;0.83;;
5704;SDS011;2877;48.238;11.160;2022-12-22T10:34:20;1.63;;;0.80;;
5704;SDS011;2877;48.238;11.160;2022-12-22T10:36:47;1.13;;;0.70;;
5704;SDS011;2877;48.238;11.160;2022-12-22T10:39:24;6.03;;;0.90;;
5704;SDS011;2877;48.238;11.160;2022-12-22T10:42:07;3.03;;;0.80;;
5704;SDS011;2877;48.238;11.160;2022-12-22T10:44:43;2.20;;;0.80;;
5704;SDS011;2877;48.238;11.160;2022-12-22T10:47:12;2.13;;;0.93;;
5704;SDS011;2877;48.238;11.160;2022-12-22T10:49:44;2.50;;;0.83;;
5704;SDS011;2877;48.238;11.160;2022-12-22T10:54:41;4.13;;;1.00;;
5704;SDS011;2877;48.238;11.160;2022-12-22T10:59:47;3.13;;;0.93;;
5704;SDS011;2877;48.238;11.160;2022-12-22T11:02:18;1.00;;;0.63;;
5704;SDS011;2877;48.238;11.160;2022-12-22T11:04:48;2.20;;;1.10;;
5704;SDS011;2877;48.238;11.160;2022-12-22T11:07:14;2.20;;;1.23;;
5704;SDS011;2877;48.238;11.160;2022-12-22T11:09:40;6.30;;;1.20;;
5704;SDS011;2877;48.238;11.160;2022-12-22T11:17:36;4.93;;;0.93;;
5704;SDS011;2877;48.238;11.160;2022-12-22T11:20:26;2.70;;;1.00;;
5704;SDS011;2877;48.238;11.160;2022-12-22T11:23:10;5.77;;;1.53;;
5704;SDS011;2877;48.238;11.160;2022-12-22T11:25:44;6.77;;;1.70;;
5704;SDS011;2877;48.238;11.160;2022-12-22T11:28:32;5.73;;;1.70;;
5704;SDS011;2877;48.238;11.160;2022-12-22T11:31:25;4.10;;;0.80;;
5704;SDS011;2877;48.238;11.160;2022-12-22T11:39:36;2.40;;;0.90;;
5704;SDS011;2877;48.238;11.160;2022-12-22T11:42:37;2.83;;;1.10;;
5704;SDS011;2877;48.238;11.160;2022-12-22T11:45:39;2.00;;;1.07;;
5704;SDS011;2877;48.238;11.160;2022-12-22T11:57:00;4.30;;;1.20;;
5704;SDS011;2877;48.238;11.160;2022-12-22T11:59:48;2.63;;;1.10;;
5704;SDS011;2877;48.238;11.160;2022-12-22T12:02:50;4.17;;;1.17;;
5704;SDS011;2877;48.238;11.160;2022-12-22T12:07:53;2.93;;;1.30;;
5704;SDS011;2877;48.238;11.160;2022-12-22T12:10:27;10.23;;;2.03;;
5704;SDS011;2877;48.238;11.160;2022-12-22T12:21:26;4.90;;;1.40;;
5704;SDS011;2877;48.238;11.160;2022-12-22T12:23:59;4.13;;;1.60;;
5704;SDS011;2877;48.238;11.160;2022-12-22T12:26:40;5.23;;;1.27;;
5704;SDS011;2877;48.238;11.160;2022-12-22T12:29:33;6.13;;;1.77;;
5704;SDS011;2877;48.238;11.160;2022-12-22T12:34:34;5.70;;;1.10;;
5704;SDS011;2877;48.238;11.160;2022-12-22T12:37:18;3.23;;;0.93;;
5704;SDS011;2877;48.238;11.160;2022-12-22T12:42:39;2.63;;;1.30;;
5704;SDS011;2877;48.238;11.160;2022-12-22T12:50:45;3.57;;;1.20;;
5704;SDS011;2877;48.238;11.160;2022-12-22T12:53:11;5.60;;;1.30;;
5704;SDS011;2877;48.238;11.160;2022-12-22T12:58:03;6.43;;;1.30;;
5704;SDS011;2877;48.238;11.160;2022-12-22T13:02:59;4.10;;;1.53;;
5704;SDS011;2877;48.238;11.160;2022-12-22T13:05:32;2.70;;;1.33;;
5704;SDS011;2877;48.238;11.160;2022-12-22T13:26:35;4.20;;;1.00;;
5704;SDS011;2877;48.238;11.160;2022-12-22T13:29:08;3.70;;;0.93;;
5704;SDS011;2877;48.238;11.160;2022-12-22T13:31:46;3.37;;;1.13;;
5704;SDS011;2877;48.238;11.160;2022-12-22T13:36:47;8.23;;;1.37;;
5704;SDS011;2877;48.238;11.160;2022-12-22T13:39:15;2.03;;;1.33;;
5704;SDS011;2877;48.238;11.160;2022-12-22T13:41:42;3.57;;;1.03;;
5704;SDS011;2877;48.238;11.160;2022-12-22T13:44:12;2.80;;;0.73;;
5704;SDS011;2877;48.238;11.160;2022-12-22T13:46:40;5.10;;;0.87;;
5704;SDS011;2877;48.238;11.160;2022-12-22T13:49:06;4.67;;;1.20;;
5704;SDS011;2877;48.238;11.160;2022-12-22T13:51:37;2.43;;;1.10;;
5704;SDS011;2877;48.238;11.160;2022-12-22T13:54:10;2.10;;;0.80;;
5704;SDS011;2877;48.238;11.160;2022-12-22T13:56:47;2.70;;;1.17;;
5704;SDS011;2877;48.238;11.160;2022-12-22T14:02:13;6.30;;;2.07;;
5704;SDS011;2877;48.238;11.160;2022-12-22T14:04:41;3.27;;;1.40;;
5704;SDS011;2877;48.238;11.160;2022-12-22T14:07:13;3.43;;;1.10;;
5704;SDS011;2877;48.238;11.160;2022-12-22T14:09:47;4.17;;;1.03;;
5704;SDS011;2877;48.238;11.160;2022-12-22T14:12:15;8.77;;;1.53;;
5704;SDS011;2877;48.238;11.160;2022-12-22T14:14:44;6.00;;;1.57;;
5704;SDS011;2877;48.238;11.160;2022-12-22T14:17:31;4.90;;;1.27;;
5704;SDS011;2877;48.238;11.160;2022-12-22T14:19:59;4.33;;;1.30;;
5704;SDS011;2877;48.238;11.160;2022-12-22T14:22:33;4.40;;;1.70;;
5704;SDS011;2877;48.238;11.160;2022-12-22T14:25:06;3.03;;;1.17;;
5704;SDS011;2877;48.238;11.160;2022-12-22T14:27:53;14.83;;;1.53;;
5704;SDS011;2877;48.238;11.160;2022-12-22T14:30:30;6.27;;;1.67;;
5704;SDS011;2877;48.238;11.160;2022-12-22T14:35:47;4.73;;;1.57;;
5704;SDS011;2877;48.238;11.160;2022-12-22T14:38:16;2.73;;;1.50;;
5704;SDS011;2877;48.238;11.160;2022-12-22T14:40:47;9.23;;;1.60;;
5704;SDS011;2877;48.238;11.160;2022-12-22T14:43:21;6.27;;;1.67;;
5704;SDS011;2877;48.238;11.160;2022-12-22T14:45:49;17.27;;;1.93;;
5704;SDS011;2877;48.238;11.160;2022-12-22T14:51:16;10.03;;;1.37;;
5704;SDS011;2877;48.238;11.160;2022-12-22T14:53:48;6.73;;;1.80;;
5704;SDS011;2877;48.238;11.160;2022-12-22T14:56:16;7.67;;;1.63;;
5704;SDS011;2877;48.238;11.160;2022-12-22T14:58:43;5.13;;;1.40;;
5704;SDS011;2877;48.238;11.160;2022-12-22T15:01:11;5.80;;;1.70;;
5704;SDS011;2877;48.238;11.160;2022-12-22T15:03:57;5.63;;;1.70;;
5704;SDS011;2877;48.238;11.160;2022-12-22T15:06:44;7.40;;;1.83;;
5704;SDS011;2877;48.238;11.160;2022-12-22T15:11:44;5.57;;;1.87;;
5704;SDS011;2877;48.238;11.160;2022-12-22T15:14:12;7.17;;;2.40;;
5704;SDS011;2877;48.238;11.160;2022-12-22T15:16:42;4.60;;;1.60;;
5704;SDS011;2877;48.238;11.160;2022-12-22T15:19:16;6.63;;;1.70;;
5704;SDS011;2877;48.238;11.160;2022-12-22T15:21:44;6.77;;;1.70;;
5704;SDS011;2877;48.238;11.160;2022-12-22T15:24:10;4.93;;;1.73;;
5704;SDS011;2877;48.238;11.160;2022-12-22T15:26:37;4.27;;;1.33;;
5704;SDS011;2877;48.238;11.160;2022-12-22T15:29:03;6.37;;;1.97;;
5704;SDS011;2877;48.238;11.160;2022-12-22T15:31:28;6.70;;;1.80;;
5704;SDS011;2877;48.238;11.160;2022-12-22T15:33:54;4.77;;;2.70;;
5704;SDS011;2877;48.238;11.160;2022-12-22T15:36:24;8.50;;;2.27;;
5704;SDS011;2877;48.238;11.160;2022-12-22T15:38:49;4.93;;;1.90;;
5704;SDS011;2877;48.238;11.160;2022-12-22T15:41:15;3.50;;;1.30;;
5704;SDS011;2877;48.238;11.160;2022-12-22T15:43:41;8.40;;;2.10;;
5704;SDS011;2877;48.238;11.160;2022-12-22T15:46:06;6.80;;;1.70;;
5704;SDS011;2877;48.238;11.160;2022-12-22T15:48:37;7.17;;;1.43;;
5704;SDS011;2877;48.238;11.160;2022-12-22T15:51:05;5.93;;;1.90;;
5704;SDS011;2877;48.238;11.160;2022-12-22T15:53:32;5.50;;;1.37;;
5704;SDS011;2877;48.238;11.160;2022-12-22T15:55:58;4.63;;;1.60;;
5704;SDS011;2877;48.238;11.160;2022-12-22T15:58:25;5.03;;;1.63;;
5704;SDS011;2877;48.238;11.160;2022-12-22T16:00:54;7.20;;;2.00;;
5704;SDS011;2877;48.238;11.160;2022-12-22T16:03:20;4.67;;;1.43;;
5704;SDS011;2877;48.238;11.160;2022-12-22T16:05:46;5.17;;;1.63;;
5704;SDS011;2877;48.238;11.160;2022-12-22T16:08:12;4.67;;;1.40;;
5704;SDS011;2877;48.238;11.160;2022-12-22T16:10:53;3.70;;;2.10;;
5704;SDS011;2877;48.238;11.160;2022-12-22T16:13:19;4.83;;;2.30;;
5704;SDS011;2877;48.238;11.160;2022-12-22T16:15:49;5.83;;;1.80;;
5704;SDS011;2877;48.238;11.160;2022-12-22T16:18:15;5.73;;;1.70;;
5704;SDS011;2877;48.238;11.160;2022-12-22T16:20:41;4.90;;;1.90;;
5704;SDS011;2877;48.238;11.160;2022-12-22T16:23:12;3.43;;;1.30;;
5704;SDS011;2877;48.238;11.160;2022-12-22T16:25:41;7.13;;;1.37;;
5704;SDS011;2877;48.238;11.160;2022-12-22T16:28:09;5.27;;;1.40;;
5704;SDS011;2877;48.238;11.160;2022-12-22T16:30:41;5.43;;;1.73;;
5704;SDS011;2877;48.238;11.160;2022-12-22T16:33:08;7.60;;;1.73;;
5704;SDS011;2877;48.238;11.160;2022-12-22T16:35:36;4.53;;;1.40;;
5704;SDS011;2877;48.238;11.160;2022-12-22T16:38:02;5.23;;;1.30;;
5704;SDS011;2877;48.238;11.160;2022-12-22T16:40:28;4.63;;;1.53;;
5704;SDS011;2877;48.238;11.160;2022-12-22T16:43:00;5.90;;;1.60;;
5704;SDS011;2877;48.238;11.160;2022-12-22T16:45:29;5.10;;;1.40;;
5704;SDS011;2877;48.238;11.160;2022-12-22T16:47:57;4.77;;;1.43;;
5704;SDS011;2877;48.238;11.160;2022-12-22T16:50:26;4.97;;;1.80;;
5704;SDS011;2877;48.238;11.160;2022-12-22T16:53:00;5.50;;;2.10;;
5704;SDS011;2877;48.238;11.160;2022-12-22T16:55:26;3.90;;;1.97;;
5704;SDS011;2877;48.238;11.160;2022-12-22T16:57:52;10.00;;;2.90;;
5704;SDS011;2877;48.238;11.160;2022-12-22T17:00:19;8.30;;;2.40;;
5704;SDS011;2877;48.238;11.160;2022-12-22T17:02:47;6.17;;;3.10;;
5704;SDS011;2877;48.238;11.160;2022-12-22T17:07:56;4.77;;;2.03;;
5704;SDS011;2877;48.238;11.160;2022-12-22T17:10:23;3.30;;;1.23;;
5704;SDS011;2877;48.238;11.160;2022-12-22T17:12:49;5.90;;;1.83;;
5704;SDS011;2877;48.238;11.160;2022-12-22T17:15:18;3.33;;;1.40;;
5704;SDS011;2877;48.238;11.160;2022-12-22T17:17:49;5.80;;;1.90;;